AirNav   ATP
 
 798 users online  

CO65 Geary Ranch Airport
Westcliffe, Colorado, USA


FAA INFORMATION EFFECTIVE 04 JANUARY 2018

Location

FAA Identifier: CO65
Lat/Long: 38-02-45.0000N / 105-28-17.0130W
38-02.750000N / 105-28.283550W
38.0458333 / -105.4713925
(estimated)
Elevation: 8300 ft. / 2530 m (estimated)
Variation: 11E (1990)
From city: 1 mile N of WESTCLIFFE, CO
Time zone: UTC -7 (UTC -6 during Daylight Saving Time)
Zip code: 81252

Airport Operations

Airport use: Private use. Permission required prior to landing
Activation date: 01/1992
Control tower: no
ARTCC: DENVER CENTER
FSS: DENVER FLIGHT SERVICE STATION
Attendance: UNATNDD
Wind indicator: yes
Segmented circle: no

Airport Services

Fuel available: 100LL

Runway Information

Runway 7/25

Dimensions: 4200 x 30 ft. / 1280 x 9 m
Surface: gravel
RUNWAY 7  RUNWAY 25
Traffic pattern: leftleft
Obstructions: 30 ft. pline, marked, 1000 ft. from runwaynone

Airport Ownership and Management from official FAA records

Ownership: Privately-owned
Owner: WILLIAM SCOTT GEARY
5700 COUNTY ROAD 129
WESTCLIFFE, CO 81252
Phone (719) 371-9331
Manager: SCOTT GEARY
5700 COUNTY ROAD 129
WESTCLIFFE, CO 81252
Phone (719) 371-9331

Airport Operational Statistics

Aircraft based on the field: 1
Single engine airplanes: 1
    

Instrument Procedures

There are no published instrument procedures at CO65.

Some nearby airports with instrument procedures:

1V6 - Fremont County Airport (29 nm NE)
4V1 - Spanish Peaks Airfield (39 nm SE)
KANK - Harriet Alexander Field Airport (40 nm NW)
KALS - San Luis Valley Regional Airport/Bergman Field (41 nm SW)
KMVI - Monte Vista Municipal Airport (41 nm SW)
 
Loc | Ops | Rwys | IFR | FBO | Links
Com | Nav | Svcs | Stats | Notes


 
Area around CO65 (Geary Ranch Airport)
 
Road maps at: MapQuest Bing Google
 
Aerial photo
No photo
 
Sectional chart

 
Airport distance calculator
Flying to Geary Ranch Airport? Find the distance to fly.

From to CO65

Sunrise and sunset
Times for 20-Jan-2018
 Local
(UTC-7)
 Zulu
(UTC)
Morning civil twilight06:4713:47
Sunrise07:1614:16
Sunset17:1000:10
Evening civil twilight17:3900:39

Current date and time
Zulu (UTC)  20-Jan-2018 14:04:25
Local (UTC-7)  20-Jan-2018 07:04:25
 
METAR
K1V6 
29nm NE 
201350Z AUTO 29014KT 10SM CLR 04/M07 A2978 RMK AO2
K04V 
33nm W 
201354Z AUTO 33007KT 10SM CLR M10/M12 A2995 RMK AO2
KVTP 
36nm SE 
201400Z AUTO 19019G32KT 140V210 10SM CLR 00/M07 RMK AO2
KANK 
40nm NW 
201355Z AUTO 33003KT 10SM CLR 03/M09 A2997 RMK AO1 T00281093
KALS 
41nm SW 
201352Z AUTO 23003KT 10SM CLR M12/M16 A2993 RMK AO2 SLP164 T11221161
KRCV 
46nm SW 
201345Z AUTO 00000KT 10SM CLR M07/M13 A2994 RMK AO2 T10721135
KMYP 
48nm NW 
201354Z AUTO 23017KT 10SM SCT032 BKN041 M06/M10 A3007 RMK AO2
KPUB 
48nm E 
201353Z 28003KT 10SM CLR M01/M08 A2977 RMK AO2 SLP077 T10111083
KFCS 
50nm NE 
201358Z AUTO 00000KT 10SM CLR 03/M10 A2978 RMK AO2 SLP088 T00291097 $
TAF
KALS 
41nm SW 
201137Z 2012/2112 19011KT P6SM SCT200 FM201900 22015G25KT P6SM FEW120 SCT200 FM210000 20013KT P6SM BKN120 BKN200 FM210600 17012KT P6SM VCSH BKN050
KPUB 
48nm E 
201137Z 2012/2112 27008KT P6SM SCT250 FM202000 24012G22KT P6SM FEW120 SCT250 FM210200 06010KT P6SM SCT100 BKN250 FM210800 02015G25KT P6SM SCT080 BKN120
KFCS 
50nm NE 
200500Z 2005/2111 24009KT 9999 SCT200 QNH2973INS BECMG 2018/2019 20012KT 9999 SCT150 QNH2967INS BECMG 2022/2023 01009KT 9999 SCT120 QNH2963INS BECMG 2108/2109 36012KT 9999 SCT030 BKN060 QNH2961INS TX18/2021Z TNM01/2010Z
NOTAMs
Click for the latest NOTAMs
NOTAMs are issued by the DoD/FAA and will open in a separate window not controlled by AirNav.

 

 
 

Would you like to see your business listed on this page?

 If your business provides an interesting product or service to pilots, flight crews, aircraft, or users of the Geary Ranch Airport, you should consider listing it here.  To start the listing process, click on the button below
 
Add a business
 

Other Pages about Geary Ranch Airport

Update a link
 
Copyright © AirNav, LLC. All rights reserved. Privacy Policy  Contact